sensor_id;sensor_type;location;lat;lon;timestamp;temperature;humidity
16313;DHT22;8265;52.622;13.296;2023-07-16T00:05:04;21.70;71.10
16313;DHT22;8265;52.622;13.296;2023-07-16T00:10:25;21.40;71.90
16313;DHT22;8265;52.622;13.296;2023-07-16T00:15:46;21.20;72.80
16313;DHT22;8265;52.622;13.296;2023-07-16T00:21:06;21.10;73.90
16313;DHT22;8265;52.622;13.296;2023-07-16T00:26:28;20.90;74.50
16313;DHT22;8265;52.622;13.296;2023-07-16T00:31:49;20.70;75.10
16313;DHT22;8265;52.622;13.296;2023-07-16T00:37:10;20.50;76.60
16313;DHT22;8265;52.622;13.296;2023-07-16T00:42:31;20.40;77.60
16313;DHT22;8265;52.622;13.296;2023-07-16T00:47:52;20.50;76.80
16313;DHT22;8265;52.622;13.296;2023-07-16T00:53:13;20.60;76.50
16313;DHT22;8265;52.622;13.296;2023-07-16T00:58:34;20.70;76.20
16313;DHT22;8265;52.622;13.296;2023-07-16T01:03:55;20.80;76.10
16313;DHT22;8265;52.622;13.296;2023-07-16T01:09:19;20.90;75.50
16313;DHT22;8265;52.622;13.296;2023-07-16T01:14:37;21.00;75.20
16313;DHT22;8265;52.622;13.296;2023-07-16T01:19:58;21.10;74.30
16313;DHT22;8265;52.622;13.296;2023-07-16T01:30:40;21.70;72.20
16313;DHT22;8265;52.622;13.296;2023-07-16T01:36:01;21.90;72.10
16313;DHT22;8265;52.622;13.296;2023-07-16T01:41:22;21.90;72.50
16313;DHT22;8265;52.622;13.296;2023-07-16T01:46:43;21.30;80.00
16313;DHT22;8265;52.622;13.296;2023-07-16T01:52:04;20.40;83.40
16313;DHT22;8265;52.622;13.296;2023-07-16T01:57:24;20.10;85.90
16313;DHT22;8265;52.622;13.296;2023-07-16T02:02:46;20.00;87.00
16313;DHT22;8265;52.622;13.296;2023-07-16T02:08:07;19.90;88.10
16313;DHT22;8265;52.622;13.296;2023-07-16T02:13:28;19.90;87.70
16313;DHT22;8265;52.622;13.296;2023-07-16T02:18:49;19.80;87.80
16313;DHT22;8265;52.622;13.296;2023-07-16T02:24:10;19.80;87.50
16313;DHT22;8265;52.622;13.296;2023-07-16T02:29:31;19.80;87.40
16313;DHT22;8265;52.622;13.296;2023-07-16T02:34:52;19.90;86.60
16313;DHT22;8265;52.622;13.296;2023-07-16T02:40:13;19.70;88.10
16313;DHT22;8265;52.622;13.296;2023-07-16T02:45:33;19.50;89.80
16313;DHT22;8265;52.622;13.296;2023-07-16T02:50:55;19.30;91.40
16313;DHT22;8265;52.622;13.296;2023-07-16T02:56:16;19.20;93.10
16313;DHT22;8265;52.622;13.296;2023-07-16T03:01:37;19.10;93.50
16313;DHT22;8265;52.622;13.296;2023-07-16T03:06:58;19.00;94.20
16313;DHT22;8265;52.622;13.296;2023-07-16T03:12:19;19.00;94.40
16313;DHT22;8265;52.622;13.296;2023-07-16T03:17:39;19.00;94.60
16313;DHT22;8265;52.622;13.296;2023-07-16T03:23:00;18.90;94.40
16313;DHT22;8265;52.622;13.296;2023-07-16T03:28:21;18.90;94.40
16313;DHT22;8265;52.622;13.296;2023-07-16T03:33:42;18.80;95.00
16313;DHT22;8265;52.622;13.296;2023-07-16T03:39:03;18.90;95.20
16313;DHT22;8265;52.622;13.296;2023-07-16T03:44:24;18.80;95.10
16313;DHT22;8265;52.622;13.296;2023-07-16T03:49:45;18.90;95.60
16313;DHT22;8265;52.622;13.296;2023-07-16T03:55:07;18.90;95.70
16313;DHT22;8265;52.622;13.296;2023-07-16T04:00:32;18.90;95.80
16313;DHT22;8265;52.622;13.296;2023-07-16T04:05:48;19.00;95.50
16313;DHT22;8265;52.622;13.296;2023-07-16T04:11:09;19.10;95.50
16313;DHT22;8265;52.622;13.296;2023-07-16T04:16:30;19.20;94.90
16313;DHT22;8265;52.622;13.296;2023-07-16T04:21:51;19.20;95.10
16313;DHT22;8265;52.622;13.296;2023-07-16T04:27:12;19.20;95.10
16313;DHT22;8265;52.622;13.296;2023-07-16T04:32:33;19.20;94.60
16313;DHT22;8265;52.622;13.296;2023-07-16T04:37:54;19.20;94.60
16313;DHT22;8265;52.622;13.296;2023-07-16T04:43:15;19.20;94.80
16313;DHT22;8265;52.622;13.296;2023-07-16T04:48:36;19.10;94.70
16313;DHT22;8265;52.622;13.296;2023-07-16T04:53:57;19.10;94.80
16313;DHT22;8265;52.622;13.296;2023-07-16T04:59:18;19.10;94.60
16313;DHT22;8265;52.622;13.296;2023-07-16T05:04:39;19.20;94.20
16313;DHT22;8265;52.622;13.296;2023-07-16T05:10:00;19.20;94.10
16313;DHT22;8265;52.622;13.296;2023-07-16T05:15:21;19.40;94.00
16313;DHT22;8265;52.622;13.296;2023-07-16T05:20:48;19.50;93.70
16313;DHT22;8265;52.622;13.296;2023-07-16T05:26:03;19.70;92.50
16313;DHT22;8265;52.622;13.296;2023-07-16T05:31:24;19.90;91.80
16313;DHT22;8265;52.622;13.296;2023-07-16T05:36:45;19.90;91.30
16313;DHT22;8265;52.622;13.296;2023-07-16T05:42:06;19.80;90.90
16313;DHT22;8265;52.622;13.296;2023-07-16T05:47:27;19.80;90.80
16313;DHT22;8265;52.622;13.296;2023-07-16T05:52:48;19.60;91.00
16313;DHT22;8265;52.622;13.296;2023-07-16T05:58:09;19.60;91.50
16313;DHT22;8265;52.622;13.296;2023-07-16T06:03:30;19.70;91.40
16313;DHT22;8265;52.622;13.296;2023-07-16T06:08:51;20.00;90.50
16313;DHT22;8265;52.622;13.296;2023-07-16T06:14:12;20.10;90.10
16313;DHT22;8265;52.622;13.296;2023-07-16T06:19:33;20.30;89.30
16313;DHT22;8265;52.622;13.296;2023-07-16T06:24:54;20.50;88.80
16313;DHT22;8265;52.622;13.296;2023-07-16T06:30:15;20.60;86.50
16313;DHT22;8265;52.622;13.296;2023-07-16T06:35:36;20.70;87.00
16313;DHT22;8265;52.622;13.296;2023-07-16T06:40:57;21.00;86.50
16313;DHT22;8265;52.622;13.296;2023-07-16T06:46:18;21.10;85.10
16313;DHT22;8265;52.622;13.296;2023-07-16T06:51:39;21.50;83.70
16313;DHT22;8265;52.622;13.296;2023-07-16T06:57:00;21.90;81.20
16313;DHT22;8265;52.622;13.296;2023-07-16T07:02:21;22.00;79.60
16313;DHT22;8265;52.622;13.296;2023-07-16T07:07:42;22.10;79.50
16313;DHT22;8265;52.622;13.296;2023-07-16T07:13:03;22.20;79.80
16313;DHT22;8265;52.622;13.296;2023-07-16T07:18:24;22.60;78.20
16313;DHT22;8265;52.622;13.296;2023-07-16T07:23:45;22.80;76.40
16313;DHT22;8265;52.622;13.296;2023-07-16T07:29:06;23.20;75.10
16313;DHT22;8265;52.622;13.296;2023-07-16T07:34:27;22.90;74.80
16313;DHT22;8265;52.622;13.296;2023-07-16T07:39:54;22.90;74.60
16313;DHT22;8265;52.622;13.296;2023-07-16T07:45:09;23.50;73.10
16313;DHT22;8265;52.622;13.296;2023-07-16T07:50:30;23.40;72.80
16313;DHT22;8265;52.622;13.296;2023-07-16T07:55:51;23.10;70.80
16313;DHT22;8265;52.622;13.296;2023-07-16T08:01:12;22.90;71.60
16313;DHT22;8265;52.622;13.296;2023-07-16T08:06:33;23.30;72.50
16313;DHT22;8265;52.622;13.296;2023-07-16T08:11:54;24.00;69.30
16313;DHT22;8265;52.622;13.296;2023-07-16T08:17:15;23.90;65.90
16313;DHT22;8265;52.622;13.296;2023-07-16T08:22:36;23.90;66.30
16313;DHT22;8265;52.622;13.296;2023-07-16T08:27:57;24.20;63.40
16313;DHT22;8265;52.622;13.296;2023-07-16T08:33:18;24.10;62.10
16313;DHT22;8265;52.622;13.296;2023-07-16T08:38:39;23.50;62.60
16313;DHT22;8265;52.622;13.296;2023-07-16T08:44:00;23.60;63.50
16313;DHT22;8265;52.622;13.296;2023-07-16T08:49:21;24.40;59.80
16313;DHT22;8265;52.622;13.296;2023-07-16T08:54:42;24.00;60.70
16313;DHT22;8265;52.622;13.296;2023-07-16T09:00:03;23.50;62.80
16313;DHT22;8265;52.622;13.296;2023-07-16T09:05:24;23.20;63.50
16313;DHT22;8265;52.622;13.296;2023-07-16T09:10:52;23.70;62.90
16313;DHT22;8265;52.622;13.296;2023-07-16T09:16:06;24.50;59.30
16313;DHT22;8265;52.622;13.296;2023-07-16T09:21:27;24.40;57.90
16313;DHT22;8265;52.622;13.296;2023-07-16T09:26:51;23.90;58.30
16313;DHT22;8265;52.622;13.296;2023-07-16T09:32:09;24.20;58.60
16313;DHT22;8265;52.622;13.296;2023-07-16T09:37:30;24.40;55.90
16313;DHT22;8265;52.622;13.296;2023-07-16T09:42:51;24.40;55.70
16313;DHT22;8265;52.622;13.296;2023-07-16T09:48:12;24.60;55.60
16313;DHT22;8265;52.622;13.296;2023-07-16T09:53:33;24.60;54.50
16313;DHT22;8265;52.622;13.296;2023-07-16T09:58:53;24.40;54.80
16313;DHT22;8265;52.622;13.296;2023-07-16T10:04:15;24.80;54.80
16313;DHT22;8265;52.622;13.296;2023-07-16T10:09:39;24.80;53.30
16313;DHT22;8265;52.622;13.296;2023-07-16T10:14:56;25.00;51.90
16313;DHT22;8265;52.622;13.296;2023-07-16T10:20:17;25.30;53.30
16313;DHT22;8265;52.622;13.296;2023-07-16T10:25:39;25.30;51.80
16313;DHT22;8265;52.622;13.296;2023-07-16T10:30:59;25.60;52.80
16313;DHT22;8265;52.622;13.296;2023-07-16T10:36:23;25.80;55.00
16313;DHT22;8265;52.622;13.296;2023-07-16T10:41:41;26.10;53.20
16313;DHT22;8265;52.622;13.296;2023-07-16T10:47:02;26.30;52.50
16313;DHT22;8265;52.622;13.296;2023-07-16T10:52:23;26.00;52.00
16313;DHT22;8265;52.622;13.296;2023-07-16T10:57:46;25.90;50.30
16313;DHT22;8265;52.622;13.296;2023-07-16T11:03:05;26.00;51.30
16313;DHT22;8265;52.622;13.296;2023-07-16T11:08:26;26.20;51.20
16313;DHT22;8265;52.622;13.296;2023-07-16T11:13:47;26.70;49.70
16313;DHT22;8265;52.622;13.296;2023-07-16T11:19:08;26.00;49.70
16313;DHT22;8265;52.622;13.296;2023-07-16T11:24:36;26.50;49.60
16313;DHT22;8265;52.622;13.296;2023-07-16T11:29:51;27.40;48.60
16313;DHT22;8265;52.622;13.296;2023-07-16T11:35:17;27.10;49.30
16313;DHT22;8265;52.622;13.296;2023-07-16T11:40:33;26.40;51.30
16313;DHT22;8265;52.622;13.296;2023-07-16T11:45:53;26.40;49.90
16313;DHT22;8265;52.622;13.296;2023-07-16T11:51:14;27.00;49.70
16313;DHT22;8265;52.622;13.296;2023-07-16T11:56:35;27.10;49.60
16313;DHT22;8265;52.622;13.296;2023-07-16T12:01:56;28.00;49.50
16313;DHT22;8265;52.622;13.296;2023-07-16T12:07:29;28.50;46.40
16313;DHT22;8265;52.622;13.296;2023-07-16T12:12:38;28.80;45.50
16313;DHT22;8265;52.622;13.296;2023-07-16T12:17:59;27.80;46.10
16313;DHT22;8265;52.622;13.296;2023-07-16T12:23:20;27.00;47.80
16313;DHT22;8265;52.622;13.296;2023-07-16T12:28:41;27.10;46.20
16313;DHT22;8265;52.622;13.296;2023-07-16T12:34:02;27.00;46.60
16313;DHT22;8265;52.622;13.296;2023-07-16T12:39:23;26.80;46.50
16313;DHT22;8265;52.622;13.296;2023-07-16T12:44:44;26.80;45.90
16313;DHT22;8265;52.622;13.296;2023-07-16T12:50:05;26.60;44.80
16313;DHT22;8265;52.622;13.296;2023-07-16T12:55:26;26.80;43.00
16313;DHT22;8265;52.622;13.296;2023-07-16T13:00:47;27.40;41.50
16313;DHT22;8265;52.622;13.296;2023-07-16T13:06:08;27.60;42.80
16313;DHT22;8265;52.622;13.296;2023-07-16T13:11:29;28.30;41.60
16313;DHT22;8265;52.622;13.296;2023-07-16T13:16:50;28.50;38.90
16313;DHT22;8265;52.622;13.296;2023-07-16T13:22:12;28.50;40.30
16313;DHT22;8265;52.622;13.296;2023-07-16T13:27:32;28.60;38.10
16313;DHT22;8265;52.622;13.296;2023-07-16T13:32:53;28.70;38.80
16313;DHT22;8265;52.622;13.296;2023-07-16T13:38:14;29.40;40.20
16313;DHT22;8265;52.622;13.296;2023-07-16T13:43:35;29.20;37.50
16313;DHT22;8265;52.622;13.296;2023-07-16T13:48:56;28.50;38.30
16313;DHT22;8265;52.622;13.296;2023-07-16T13:54:17;28.10;39.10
16313;DHT22;8265;52.622;13.296;2023-07-16T13:59:38;27.60;40.20
16313;DHT22;8265;52.622;13.296;2023-07-16T14:04:59;28.90;40.30
16313;DHT22;8265;52.622;13.296;2023-07-16T14:10:20;29.40;38.70
16313;DHT22;8265;52.622;13.296;2023-07-16T14:15:41;29.00;39.40
16313;DHT22;8265;52.622;13.296;2023-07-16T14:21:02;28.80;40.50
16313;DHT22;8265;52.622;13.296;2023-07-16T14:26:23;29.70;37.80
16313;DHT22;8265;52.622;13.296;2023-07-16T14:31:44;29.30;38.90
16313;DHT22;8265;52.622;13.296;2023-07-16T14:37:05;29.40;37.40
16313;DHT22;8265;52.622;13.296;2023-07-16T14:42:26;28.30;37.90
16313;DHT22;8265;52.622;13.296;2023-07-16T14:47:47;28.10;41.10
16313;DHT22;8265;52.622;13.296;2023-07-16T14:53:08;30.30;36.70
16313;DHT22;8265;52.622;13.296;2023-07-16T14:58:29;30.30;36.30
16313;DHT22;8265;52.622;13.296;2023-07-16T15:03:50;30.50;37.90
16313;DHT22;8265;52.622;13.296;2023-07-16T15:09:11;31.20;35.90
16313;DHT22;8265;52.622;13.296;2023-07-16T15:14:33;31.00;34.70
16313;DHT22;8265;52.622;13.296;2023-07-16T15:19:53;30.90;34.20
16313;DHT22;8265;52.622;13.296;2023-07-16T15:25:14;30.80;35.00
16313;DHT22;8265;52.622;13.296;2023-07-16T15:30:35;30.50;34.10
16313;DHT22;8265;52.622;13.296;2023-07-16T15:35:56;29.10;35.90
16313;DHT22;8265;52.622;13.296;2023-07-16T15:41:17;28.10;37.60
16313;DHT22;8265;52.622;13.296;2023-07-16T15:46:38;29.20;38.20
16313;DHT22;8265;52.622;13.296;2023-07-16T15:51:59;30.10;35.50
16313;DHT22;8265;52.622;13.296;2023-07-16T15:57:20;30.30;36.60
16313;DHT22;8265;52.622;13.296;2023-07-16T16:02:44;30.70;34.80
16313;DHT22;8265;52.622;13.296;2023-07-16T16:08:15;30.80;34.70
16313;DHT22;8265;52.622;13.296;2023-07-16T16:13:23;30.80;34.50
16313;DHT22;8265;52.622;13.296;2023-07-16T16:18:44;30.80;33.30
16313;DHT22;8265;52.622;13.296;2023-07-16T16:24:05;30.60;34.20
16313;DHT22;8265;52.622;13.296;2023-07-16T16:29:26;29.70;34.90
16313;DHT22;8265;52.622;13.296;2023-07-16T16:34:47;29.60;35.10
16313;DHT22;8265;52.622;13.296;2023-07-16T16:40:08;30.20;33.60
16313;DHT22;8265;52.622;13.296;2023-07-16T16:45:29;30.80;33.40
16313;DHT22;8265;52.622;13.296;2023-07-16T16:50:52;32.00;31.30
16313;DHT22;8265;52.622;13.296;2023-07-16T16:56:11;32.20;31.00
16313;DHT22;8265;52.622;13.296;2023-07-16T17:01:32;31.70;30.90
16313;DHT22;8265;52.622;13.296;2023-07-16T17:06:53;31.50;32.20
16313;DHT22;8265;52.622;13.296;2023-07-16T17:12:14;31.50;33.50
16313;DHT22;8265;52.622;13.296;2023-07-16T17:17:35;32.00;31.10
16313;DHT22;8265;52.622;13.296;2023-07-16T17:22:56;31.50;32.80
16313;DHT22;8265;52.622;13.296;2023-07-16T17:28:17;31.40;32.30
16313;DHT22;8265;52.622;13.296;2023-07-16T17:33:38;30.90;34.10
16313;DHT22;8265;52.622;13.296;2023-07-16T17:38:59;31.10;32.90
16313;DHT22;8265;52.622;13.296;2023-07-16T17:44:20;30.20;34.40
16313;DHT22;8265;52.622;13.296;2023-07-16T17:49:41;30.40;33.70
16313;DHT22;8265;52.622;13.296;2023-07-16T17:55:02;30.50;35.00
16313;DHT22;8265;52.622;13.296;2023-07-16T18:00:23;30.00;35.00
16313;DHT22;8265;52.622;13.296;2023-07-16T18:05:44;29.20;35.20
16313;DHT22;8265;52.622;13.296;2023-07-16T18:11:04;27.50;40.00
16313;DHT22;8265;52.622;13.296;2023-07-16T18:16:26;26.40;42.40
16313;DHT22;8265;52.622;13.296;2023-07-16T18:21:46;25.60;39.70
16313;DHT22;8265;52.622;13.296;2023-07-16T18:27:07;25.40;40.90
16313;DHT22;8265;52.622;13.296;2023-07-16T18:32:31;25.20;40.60
16313;DHT22;8265;52.622;13.296;2023-07-16T18:37:49;24.80;43.20
16313;DHT22;8265;52.622;13.296;2023-07-16T18:43:11;24.20;46.20
16313;DHT22;8265;52.622;13.296;2023-07-16T18:48:32;23.60;47.90
16313;DHT22;8265;52.622;13.296;2023-07-16T18:53:53;23.20;48.90
16313;DHT22;8265;52.622;13.296;2023-07-16T18:59:14;22.90;49.40
16313;DHT22;8265;52.622;13.296;2023-07-16T19:04:35;22.30;51.90
16313;DHT22;8265;52.622;13.296;2023-07-16T19:09:55;21.90;54.40
16313;DHT22;8265;52.622;13.296;2023-07-16T19:15:17;21.40;56.10
16313;DHT22;8265;52.622;13.296;2023-07-16T19:20:37;21.10;57.50
16313;DHT22;8265;52.622;13.296;2023-07-16T19:25:58;20.70;58.70
16313;DHT22;8265;52.622;13.296;2023-07-16T19:31:21;20.40;59.20
16313;DHT22;8265;52.622;13.296;2023-07-16T19:36:40;20.10;60.80
16313;DHT22;8265;52.622;13.296;2023-07-16T19:42:01;19.90;61.10
16313;DHT22;8265;52.622;13.296;2023-07-16T19:47:22;19.70;61.60
16313;DHT22;8265;52.622;13.296;2023-07-16T19:52:43;19.50;62.50
16313;DHT22;8265;52.622;13.296;2023-07-16T19:58:04;19.40;62.50
16313;DHT22;8265;52.622;13.296;2023-07-16T20:03:25;19.20;64.00
16313;DHT22;8265;52.622;13.296;2023-07-16T20:08:46;19.00;64.30
16313;DHT22;8265;52.622;13.296;2023-07-16T20:14:07;18.70;64.30
16313;DHT22;8265;52.622;13.296;2023-07-16T20:19:28;18.40;64.70
16313;DHT22;8265;52.622;13.296;2023-07-16T20:24:49;18.20;65.20
16313;DHT22;8265;52.622;13.296;2023-07-16T20:30:10;18.00;65.80
16313;DHT22;8265;52.622;13.296;2023-07-16T20:35:31;18.00;67.30
16313;DHT22;8265;52.622;13.296;2023-07-16T20:40:53;17.90;67.60
16313;DHT22;8265;52.622;13.296;2023-07-16T20:46:13;17.80;66.40
16313;DHT22;8265;52.622;13.296;2023-07-16T20:51:34;17.60;66.70
16313;DHT22;8265;52.622;13.296;2023-07-16T20:56:55;17.50;67.40
16313;DHT22;8265;52.622;13.296;2023-07-16T21:02:16;17.50;66.50
16313;DHT22;8265;52.622;13.296;2023-07-16T21:07:38;17.40;67.20
16313;DHT22;8265;52.622;13.296;2023-07-16T21:12:58;17.20;68.30
16313;DHT22;8265;52.622;13.296;2023-07-16T21:18:19;17.20;69.60
16313;DHT22;8265;52.622;13.296;2023-07-16T21:23:40;17.20;69.80
16313;DHT22;8265;52.622;13.296;2023-07-16T21:29:01;17.20;69.30
16313;DHT22;8265;52.622;13.296;2023-07-16T21:34:22;17.10;69.30
16313;DHT22;8265;52.622;13.296;2023-07-16T21:39:43;17.00;70.40
16313;DHT22;8265;52.622;13.296;2023-07-16T21:45:05;17.00;70.70
16313;DHT22;8265;52.622;13.296;2023-07-16T21:50:25;16.90;69.50
16313;DHT22;8265;52.622;13.296;2023-07-16T21:55:46;16.90;70.90
16313;DHT22;8265;52.622;13.296;2023-07-16T22:01:07;16.70;71.20
16313;DHT22;8265;52.622;13.296;2023-07-16T22:06:29;16.60;71.60
16313;DHT22;8265;52.622;13.296;2023-07-16T22:11:49;16.50;71.40
16313;DHT22;8265;52.622;13.296;2023-07-16T22:17:10;16.60;72.20
16313;DHT22;8265;52.622;13.296;2023-07-16T22:22:31;16.50;72.90
16313;DHT22;8265;52.622;13.296;2023-07-16T22:27:52;16.40;73.80
16313;DHT22;8265;52.622;13.296;2023-07-16T22:33:13;16.40;73.80
16313;DHT22;8265;52.622;13.296;2023-07-16T22:38:34;16.20;73.90
16313;DHT22;8265;52.622;13.296;2023-07-16T22:43:55;16.00;73.70
16313;DHT22;8265;52.622;13.296;2023-07-16T22:49:16;16.00;74.50
16313;DHT22;8265;52.622;13.296;2023-07-16T22:54:37;16.00;73.90
16313;DHT22;8265;52.622;13.296;2023-07-16T22:59:58;16.10;75.00
16313;DHT22;8265;52.622;13.296;2023-07-16T23:05:19;16.10;74.00
16313;DHT22;8265;52.622;13.296;2023-07-16T23:10:40;16.10;74.70
16313;DHT22;8265;52.622;13.296;2023-07-16T23:16:01;16.10;74.50
16313;DHT22;8265;52.622;13.296;2023-07-16T23:21:22;16.00;74.50
16313;DHT22;8265;52.622;13.296;2023-07-16T23:26:43;16.00;74.70
16313;DHT22;8265;52.622;13.296;2023-07-16T23:32:04;15.80;74.40
16313;DHT22;8265;52.622;13.296;2023-07-16T23:37:25;15.80;73.70
16313;DHT22;8265;52.622;13.296;2023-07-16T23:42:46;15.80;75.00
16313;DHT22;8265;52.622;13.296;2023-07-16T23:48:07;15.80;75.20
16313;DHT22;8265;52.622;13.296;2023-07-16T23:53:28;16.00;74.80
16313;DHT22;8265;52.622;13.296;2023-07-16T23:58:49;16.00;74.20
